Time;durP1;ratioP1;P1;durP2;ratioP2;P2;SDS_P1;SDS_P2;PMS_P1;PMS_P2;Temp;Humidity;BMP_temperature;BMP_pressure;BME280_temperature;BME280_humidity;BME280_pressure;Samples;Min_cycle;Max_cycle;Signal;HPM_P1;HPM_P2
2022/01/04 00:01:30;;;;;;;2.67;0.90;;;;;;;25.21;20.57;97306.88;5070470;28;20091;-79
2022/01/04 00:03:57;;;;;;;1.35;1.00;;;;;;;25.24;20.79;97313.59;5070374;28;20060;-79
2022/01/04 00:06:23;;;;;;;2.80;1.00;;;;;;;24.86;21.47;97325.06;5072836;28;20484;-79
2022/01/04 00:08:49;;;;;;;1.75;0.98;;;;;;;25.47;20.84;97312.31;5054256;28;20556;-79
2022/01/04 00:13:41;;;;;;;2.50;0.95;;;;;;;24.68;21.50;97308.84;5067063;28;20086;-78
2022/01/04 00:16:10;;;;;;;2.95;0.93;;;;;;;25.50;21.05;97302.97;5075272;28;20086;-78
2022/01/04 00:18:36;;;;;;;1.67;0.80;;;;;;;25.95;20.22;97298.25;5072298;28;20029;-79
2022/01/04 00:21:03;;;;;;;2.63;0.80;;;;;;;25.54;20.65;97292.38;5073878;28;20613;-79
2022/01/04 00:23:30;;;;;;;1.25;0.50;;;;;;;26.02;20.25;97297.22;5071679;28;20480;-79
2022/01/04 00:25:56;;;;;;;2.50;0.70;;;;;;;26.15;20.02;97288.66;5071913;28;20032;-79
2022/01/04 00:28:22;;;;;;;1.50;0.70;;;;;;;26.30;20.07;97286.81;5073238;28;20024;-79
2022/01/04 00:30:48;;;;;;;0.82;0.60;;;;;;;26.42;19.86;97285.88;5065314;28;20033;-79
2022/01/04 00:33:17;;;;;;;1.30;0.60;;;;;;;25.99;20.43;97282.03;5067307;28;20121;-79
2022/01/04 00:35:44;;;;;;;0.75;0.60;;;;;;;26.25;20.28;97281.78;5069180;28;20039;-78
2022/01/04 00:38:10;;;;;;;2.10;0.60;;;;;;;25.73;20.36;97275.09;5078749;28;20609;-79
2022/01/04 00:40:36;;;;;;;1.90;0.60;;;;;;;26.01;20.24;97279.53;5066483;28;20131;-78
2022/01/04 00:43:04;;;;;;;1.00;0.38;;;;;;;26.50;19.78;97271.00;5063386;28;20036;-79
2022/01/04 00:45:32;;;;;;;1.13;0.50;;;;;;;26.41;19.57;97273.03;5073296;28;20539;-79
2022/01/04 00:50:28;;;;;;;1.23;0.57;;;;;;;25.64;20.52;97277.91;5069332;28;20056;-78
2022/01/04 00:52:54;;;;;;;1.73;0.60;;;;;;;24.92;21.87;97277.53;5070050;28;20024;-78
2022/01/04 00:55:21;;;;;;;1.45;0.80;;;;;;;25.33;21.50;97277.09;5071168;28;20082;-78
2022/01/04 00:57:47;;;;;;;1.58;0.73;;;;;;;25.10;21.64;97267.19;5069794;28;20037;-79
2022/01/04 01:00:16;;;;;;;1.00;0.47;;;;;;;25.40;21.82;97257.94;5064063;28;20029;-78
2022/01/04 01:02:43;;;;;;;1.80;0.63;;;;;;;25.69;21.16;97254.78;5065370;28;20056;-79
2022/01/04 01:05:10;;;;;;;1.67;0.60;;;;;;;25.03;21.72;97266.66;5072810;28;20036;-79
2022/01/04 01:07:36;;;;;;;1.00;0.40;;;;;;;25.94;20.88;97256.56;5056742;28;20115;-79
2022/01/04 01:10:25;;;;;;;1.85;0.75;;;;;;;26.04;20.89;97256.09;5071953;28;21530;-79
2022/01/04 01:12:52;;;;;;;1.42;0.50;;;;;;;25.98;20.92;97257.97;5066550;28;20055;-79
2022/01/04 01:15:19;;;;;;;0.65;0.55;;;;;;;26.17;20.98;97247.53;5071057;28;20040;-79
2022/01/04 01:17:45;;;;;;;1.10;0.50;;;;;;;26.29;20.76;97248.63;5067872;28;20136;-79
2022/01/04 01:20:13;;;;;;;1.08;0.55;;;;;;;25.90;21.03;97247.50;5068090;28;20414;-79
2022/01/04 01:22:40;;;;;;;1.15;0.98;;;;;;;25.39;21.39;97242.31;5069649;28;20040;-78
2022/01/04 01:25:08;;;;;;;0.52;0.40;;;;;;;25.96;21.24;97239.97;5066141;28;20521;-79
2022/01/04 01:27:34;;;;;;;0.95;0.60;;;;;;;26.20;20.96;97240.19;5066712;28;20063;-79
2022/01/04 01:30:00;;;;;;;0.93;0.68;;;;;;;25.23;21.71;97242.56;5071414;28;20043;-79
2022/01/04 01:32:26;;;;;;;0.85;0.65;;;;;;;25.10;22.64;97233.47;5069880;28;20035;-79
2022/01/04 01:34:52;;;;;;;0.88;0.32;;;;;;;25.54;21.86;97236.16;5065416;28;20131;-79
2022/01/04 01:37:18;;;;;;;0.75;0.50;;;;;;;25.78;21.68;97225.91;5061451;28;20364;-79
2022/01/04 01:39:44;;;;;;;1.40;0.68;;;;;;;26.24;21.38;97230.34;5063200;28;20048;-79
2022/01/04 01:42:10;;;;;;;2.13;0.40;;;;;;;26.13;21.37;97229.25;5065290;28;20044;-79
2022/01/04 01:44:37;;;;;;;0.85;0.43;;;;;;;26.26;21.02;97232.69;5067353;28;20040;-79
2022/01/04 01:47:03;;;;;;;2.00;0.52;;;;;;;26.47;21.13;97238.16;5065503;28;20033;-79
2022/01/04 01:49:29;;;;;;;1.60;0.40;;;;;;;25.96;21.74;97237.97;5064553;28;20072;-79
2022/01/04 01:51:56;;;;;;;1.30;0.50;;;;;;;26.16;21.60;97234.72;5064810;28;20048;-79
2022/01/04 01:54:23;;;;;;;0.70;0.35;;;;;;;26.34;21.54;97236.75;5064182;28;20119;-79
2022/01/04 01:56:49;;;;;;;0.98;0.50;;;;;;;25.73;21.87;97232.94;5068941;28;20040;-79
2022/01/04 01:59:15;;;;;;;0.70;0.50;;;;;;;26.24;21.38;97235.97;5064610;28;20029;-78
2022/01/04 02:01:42;;;;;;;0.52;0.30;;;;;;;26.64;21.39;97233.75;5065398;28;20036;-79
2022/01/04 02:04:08;;;;;;;0.40;0.38;;;;;;;27.06;20.90;97233.84;5065673;28;20024;-79
2022/01/04 02:06:35;;;;;;;0.40;0.40;;;;;;;27.25;20.76;97229.69;5065766;28;20111;-78
2022/01/04 02:09:03;;;;;;;0.47;0.20;;;;;;;27.51;20.21;97226.47;5050489;28;20025;-79
2022/01/04 02:11:30;;;;;;;0.82;0.40;;;;;;;27.63;20.07;97231.91;5065730;28;20395;-79
2022/01/04 02:13:57;;;;;;;0.85;0.55;;;;;;;27.44;20.01;97224.78;5068531;28;20072;-79
2022/01/04 02:16:29;;;;;;;1.38;0.50;;;;;;;27.38;20.27;97221.84;5067879;28;20115;-79
2022/01/04 02:19:08;;;;;;;1.48;0.70;;;;;;;27.34;20.39;97212.75;5063034;28;20044;-79
2022/01/04 02:21:35;;;;;;;4.00;0.47;;;;;;;27.35;20.43;97216.34;5069407;28;20043;-79
2022/01/04 02:24:03;;;;;;;0.95;0.40;;;;;;;27.43;20.18;97203.47;5067971;28;20391;-79
2022/01/04 02:26:31;;;;;;;1.63;0.55;;;;;;;27.64;20.20;97202.44;5051272;28;20028;-79
2022/01/04 02:28:59;;;;;;;1.95;0.52;;;;;;;27.80;20.14;97201.22;5070468;28;20404;-79
2022/01/04 02:31:25;;;;;;;3.42;0.43;;;;;;;27.80;20.23;97204.03;5063450;28;20040;-79
2022/01/04 02:33:51;;;;;;;0.88;0.57;;;;;;;28.00;19.75;97187.31;5062422;28;20537;-79
2022/01/04 02:36:17;;;;;;;1.63;0.73;;;;;;;28.10;19.86;97191.63;5070130;28;20395;-79
2022/01/04 02:38:43;;;;;;;0.90;0.30;;;;;;;27.87;19.75;97181.91;5069199;28;20032;-78
2022/01/04 02:41:09;;;;;;;0.95;0.40;;;;;;;27.88;19.79;97172.19;5069288;28;20036;-78
2022/01/04 02:43:35;;;;;;;0.65;0.25;;;;;;;27.74;20.09;97169.31;5068175;28;20040;-79
2022/01/04 02:46:01;;;;;;;0.68;0.40;;;;;;;27.70;20.01;97169.47;5063367;28;20066;-79
2022/01/04 02:48:27;;;;;;;0.52;0.40;;;;;;;27.91;19.92;97170.44;5067084;28;20041;-79
2022/01/04 02:50:56;;;;;;;0.63;0.45;;;;;;;27.89;19.78;97170.91;5068755;28;20029;-78
2022/01/04 02:53:22;;;;;;;1.20;0.30;;;;;;;27.76;19.86;97161.13;5067039;28;20032;-78
2022/01/04 02:55:48;;;;;;;0.38;0.30;;;;;;;27.54;20.36;97163.50;5063396;28;20037;-78
2022/01/04 02:58:14;;;;;;;0.30;0.30;;;;;;;27.23;20.80;97158.16;5068390;28;20032;-78
2022/01/04 03:00:40;;;;;;;1.02;0.15;;;;;;;27.40;20.60;97148.03;5068359;28;20499;-78
2022/01/04 03:03:06;;;;;;;0.20;0.20;;;;;;;27.71;20.35;97145.66;5069854;28;20373;-78
2022/01/04 03:05:32;;;;;;;0.52;0.30;;;;;;;28.03;19.64;97149.66;5065974;28;20029;-78
2022/01/04 03:07:58;;;;;;;0.68;0.40;;;;;;;28.15;19.65;97136.53;5069347;28;20107;-78
2022/01/04 03:10:24;;;;;;;0.52;0.30;;;;;;;27.95;19.91;97140.00;5068789;28;20048;-78
2022/01/04 03:12:50;;;;;;;0.65;0.30;;;;;;;28.08;19.97;97135.66;5069366;28;20552;-78
2022/01/04 03:15:17;;;;;;;0.68;0.30;;;;;;;28.28;19.40;97125.75;5066588;28;20407;-78
2022/01/04 03:17:43;;;;;;;0.40;0.25;;;;;;;28.15;19.55;97133.72;5068347;28;20154;-78
2022/01/04 03:20:10;;;;;;;0.30;0.20;;;;;;;27.86;19.84;97128.78;5068784;28;20098;-78
2022/01/04 03:22:36;;;;;;;0.35;0.35;;;;;;;27.66;20.03;97126.56;5066784;28;20399;-78
2022/01/04 03:25:03;;;;;;;0.30;0.17;;;;;;;27.99;19.87;97118.03;5068601;28;20024;-78
2022/01/04 03:27:30;;;;;;;0.57;0.25;;;;;;;27.95;20.05;97111.78;5064316;28;20052;-79
2022/01/04 03:29:56;;;;;;;1.13;0.40;;;;;;;27.91;20.03;97102.72;5068107;28;20036;-78
2022/01/04 03:32:22;;;;;;;0.57;0.20;;;;;;;28.05;19.91;97108.41;5065692;28;20032;-78
2022/01/04 03:34:49;;;;;;;0.30;0.28;;;;;;;27.27;20.54;97086.25;5068171;28;20090;-78
2022/01/04 03:37:15;;;;;;;0.28;0.20;;;;;;;26.44;21.79;97084.25;5075106;28;20037;-78
2022/01/04 03:39:41;;;;;;;0.45;0.32;;;;;;;25.50;22.98;97089.34;5068510;28;20032;-78
2022/01/04 03:42:07;;;;;;;0.40;0.30;;;;;;;25.72;22.75;97079.50;5065995;28;20040;-78
2022/01/04 03:44:33;;;;;;;1.65;0.25;;;;;;;25.87;22.50;97074.03;5068271;28;20056;-78
2022/01/04 03:46:59;;;;;;;0.32;0.20;;;;;;;26.21;21.98;97084.94;5066567;28;20032;-78
2022/01/04 03:49:25;;;;;;;0.20;0.15;;;;;;;26.36;21.86;97068.97;5068887;28;20044;-79
2022/01/04 03:51:52;;;;;;;0.40;0.40;;;;;;;26.47;21.58;97072.06;5069578;28;20045;-79
2022/01/04 03:54:19;;;;;;;1.40;0.20;;;;;;;26.78;21.34;97071.81;5055676;28;20029;-78
2022/01/04 03:56:46;;;;;;;0.25;0.20;;;;;;;26.37;21.82;97055.69;5069484;28;20032;-78
2022/01/04 03:59:12;;;;;;;0.52;0.20;;;;;;;26.18;22.05;97059.81;5063772;28;20033;-78
2022/01/04 04:01:38;;;;;;;0.40;0.20;;;;;;;26.04;22.18;97055.59;5048320;28;20417;-78
2022/01/04 04:04:04;;;;;;;0.25;0.20;;;;;;;25.38;22.95;97049.66;5051318;28;20395;-78
2022/01/04 04:06:30;;;;;;;0.20;0.20;;;;;;;25.79;22.20;97039.84;5062706;28;22364;-79
2022/01/04 04:08:57;;;;;;;0.50;0.38;;;;;;;25.95;22.33;97041.53;5071534;28;20043;-78
2022/01/04 04:11:26;;;;;;;0.20;0.20;;;;;;;26.46;21.90;97042.38;5072151;28;20052;-78
2022/01/04 04:13:53;;;;;;;0.47;0.20;;;;;;;26.92;21.18;97042.94;5072737;28;20040;-78
2022/01/04 04:16:19;;;;;;;0.40;0.30;;;;;;;27.02;20.97;97041.66;5072399;28;20039;-78
2022/01/04 04:18:45;;;;;;;0.95;0.40;;;;;;;27.11;20.90;97040.78;5064197;28;20036;-77
2022/01/04 04:21:12;;;;;;;3.05;0.30;;;;;;;27.06;20.67;97033.78;5070189;28;20037;-78
2022/01/04 04:23:38;;;;;;;0.30;0.30;;;;;;;26.88;21.24;97025.44;5066525;28;20017;-77
2022/01/04 04:26:06;;;;;;;0.43;0.20;;;;;;;26.96;21.00;97028.66;5071027;28;20037;-78
2022/01/04 04:28:32;;;;;;;0.30;0.30;;;;;;;26.82;21.03;97018.09;5071819;28;20119;-78
2022/01/04 04:30:59;;;;;;;0.20;0.20;;;;;;;26.81;21.03;97022.19;5076818;28;20034;-78
2022/01/04 04:33:25;;;;;;;1.00;0.40;;;;;;;26.97;20.82;97025.38;5072507;28;20394;-78
2022/01/04 04:35:51;;;;;;;0.80;0.45;;;;;;;27.21;20.58;97019.75;5075100;28;20467;-78
2022/01/04 04:38:18;;;;;;;1.10;0.60;;;;;;;27.20;20.56;97021.78;5069667;28;20119;-78
2022/01/04 04:40:44;;;;;;;1.00;0.70;;;;;;;27.07;20.62;97029.69;5063114;28;20029;-78
2022/01/04 04:43:11;;;;;;;1.25;0.70;;;;;;;27.01;20.67;97013.94;5053852;28;20048;-79
2022/01/04 04:45:37;;;;;;;1.48;0.70;;;;;;;26.81;20.83;97019.38;5051688;28;20067;-78
2022/01/04 04:48:03;;;;;;;1.42;0.65;;;;;;;26.65;21.13;97014.91;5072449;28;20033;-78
2022/01/04 04:50:29;;;;;;;0.90;0.40;;;;;;;26.78;21.00;97007.03;5071589;28;20094;-78
2022/01/04 04:52:57;;;;;;;1.23;0.40;;;;;;;26.60;21.32;97002.25;5070800;28;20036;-78
2022/01/04 04:55:23;;;;;;;0.30;0.25;;;;;;;26.60;21.42;97001.47;5065730;28;20040;-78
2022/01/04 04:57:49;;;;;;;1.35;0.65;;;;;;;26.71;21.16;97001.72;5070247;28;20024;-78
2022/01/04 05:00:15;;;;;;;1.15;0.40;;;;;;;26.76;21.10;96994.69;5070054;28;20111;-78
2022/01/04 05:02:41;;;;;;;0.85;0.38;;;;;;;26.65;21.34;96981.13;5068596;28;20032;-78
2022/01/04 05:05:08;;;;;;;0.40;0.30;;;;;;;27.19;21.08;96988.47;5070896;28;20039;-79
2022/01/04 05:07:35;;;;;;;0.60;0.32;;;;;;;27.64;20.25;96982.44;5071735;28;20556;-79
2022/01/04 05:10:06;;;;;;;0.30;0.20;;;;;;;27.55;20.25;96988.16;5071490;28;20032;-78
2022/01/04 05:12:32;;;;;;;0.38;0.28;;;;;;;27.50;20.20;96990.88;5069884;28;20135;-79
2022/01/04 05:14:58;;;;;;;0.28;0.20;;;;;;;27.68;20.37;96982.25;5076847;28;20064;-78
2022/01/04 05:17:25;;;;;;;1.48;0.40;;;;;;;27.66;20.26;96984.78;5068608;28;20032;-78
2022/01/04 05:19:51;;;;;;;0.30;0.30;;;;;;;27.78;20.22;96987.31;5073129;28;20028;-78
2022/01/04 05:22:17;;;;;;;0.52;0.30;;;;;;;27.66;20.19;96984.78;5070764;28;20038;-78
2022/01/04 05:24:43;;;;;;;0.80;0.25;;;;;;;27.23;20.46;96975.75;5069040;28;20020;-78
2022/01/04 05:27:09;;;;;;;0.47;0.30;;;;;;;27.51;20.35;96981.94;5062555;28;20098;-78
2022/01/04 05:29:35;;;;;;;0.20;0.20;;;;;;;27.29;20.89;96973.00;5063698;28;20527;-78
2022/01/04 05:32:01;;;;;;;1.83;0.63;;;;;;;27.27;20.76;96972.72;5059973;28;20115;-78
2022/01/04 05:34:27;;;;;;;1.55;0.52;;;;;;;27.57;20.50;96974.38;5060217;28;20036;-78
2022/01/04 05:36:53;;;;;;;0.60;0.20;;;;;;;27.62;20.44;96973.69;5067168;28;20040;-78
2022/01/04 05:39:19;;;;;;;1.08;0.30;;;;;;;27.76;20.29;96969.31;5069948;28;20071;-79
2022/01/04 05:41:46;;;;;;;1.02;0.40;;;;;;;27.61;20.28;96960.84;5068517;28;20549;-79
2022/01/04 05:44:12;;;;;;;0.47;0.30;;;;;;;27.74;20.51;96964.19;5071616;28;20029;-79
2022/01/04 05:46:38;;;;;;;0.60;0.30;;;;;;;27.67;20.43;96953.28;5069597;28;20498;-79
2022/01/04 05:49:04;;;;;;;0.57;0.32;;;;;;;27.13;20.81;96960.16;5070259;28;20040;-79
2022/01/04 05:51:30;;;;;;;0.98;0.30;;;;;;;27.14;20.53;96952.50;5069129;28;20385;-79
2022/01/04 05:53:56;;;;;;;0.50;0.20;;;;;;;26.95;20.72;96954.66;5071179;28;20475;-78
2022/01/04 05:56:23;;;;;;;0.20;0.20;;;;;;;27.04;20.97;96942.53;5051537;28;20234;-78
2022/01/04 05:58:49;;;;;;;0.40;0.25;;;;;;;27.20;20.79;96945.69;5069548;28;20035;-78
2022/01/04 06:01:15;;;;;;;0.50;0.20;;;;;;;27.22;20.77;96950.84;5052264;28;20037;-78
2022/01/04 06:03:41;;;;;;;0.20;0.20;;;;;;;27.04;20.69;96946.13;5067891;28;20032;-78
2022/01/04 06:06:07;;;;;;;1.00;0.30;;;;;;;26.20;21.82;96930.69;5047759;28;20398;-78
2022/01/04 06:08:36;;;;;;;0.30;0.30;;;;;;;26.48;21.67;96938.50;5074914;28;20458;-78
2022/01/04 06:11:02;;;;;;;1.55;0.68;;;;;;;26.29;21.74;96933.44;5066729;28;20035;-78
2022/01/04 06:16:13;;;;;;;2.33;1.25;;;;;;;26.27;21.95;96928.31;5066465;28;20177;-78
2022/01/04 06:18:41;;;;;;;1.20;0.80;;;;;;;26.70;21.24;96935.38;5070227;28;20029;-79
2022/01/04 06:21:08;;;;;;;1.40;0.95;;;;;;;26.55;21.08;96929.72;5069986;28;20033;-79
2022/01/04 06:23:34;;;;;;;1.20;0.85;;;;;;;26.19;21.89;96929.09;5069144;28;20459;-79
2022/01/04 06:26:00;;;;;;;1.30;0.90;;;;;;;25.99;21.86;96929.63;5064362;28;20391;-78
2022/01/04 06:28:26;;;;;;;0.90;0.70;;;;;;;26.47;21.39;96928.50;5066321;28;20086;-78
2022/01/04 06:30:53;;;;;;;1.10;0.70;;;;;;;26.73;21.06;96935.22;5068256;28;20072;-78
2022/01/04 06:33:23;;;;;;;2.03;0.85;;;;;;;26.75;20.88;96931.94;5065464;28;20028;-78
2022/01/04 06:35:50;;;;;;;1.08;0.63;;;;;;;26.59;21.40;96930.31;5057681;28;20055;-78
2022/01/04 06:38:17;;;;;;;1.17;0.70;;;;;;;26.59;21.27;96933.13;5058075;28;20035;-78
2022/01/04 06:40:43;;;;;;;0.90;0.60;;;;;;;26.50;21.37;96932.38;5058371;28;20033;-78
2022/01/04 06:43:09;;;;;;;2.05;0.60;;;;;;;26.60;21.29;96934.69;5058773;28;20039;-79
2022/01/04 06:45:35;;;;;;;1.67;1.00;;;;;;;27.15;20.80;96920.22;5071654;28;20047;-78
2022/01/04 06:48:01;;;;;;;5.60;2.50;;;;;;;27.36;20.39;96922.69;5067582;28;20037;-78
2022/01/04 06:50:27;;;;;;;6.80;3.15;;;;;;;27.00;20.83;96913.78;5068993;28;20045;-78
2022/01/04 06:52:54;;;;;;;3.78;1.98;;;;;;;26.69;21.04;96917.72;5067541;28;22362;-78
2022/01/04 06:55:20;;;;;;;3.78;1.83;;;;;;;27.10;21.00;96916.03;5062880;28;20396;-79
2022/01/04 06:57:46;;;;;;;3.72;1.67;;;;;;;27.46;20.60;96914.94;5069150;28;20070;-78
2022/01/04 07:00:12;;;;;;;5.55;2.65;;;;;;;27.72;20.16;96904.66;5065882;28;20036;-78
2022/01/04 07:02:38;;;;;;;3.88;2.05;;;;;;;28.11;19.87;96899.66;5067352;28;20089;-77
2022/01/04 07:05:05;;;;;;;4.80;2.08;;;;;;;28.48;19.67;96891.47;5052486;28;20141;-78
2022/01/04 07:07:31;;;;;;;3.10;1.73;;;;;;;28.58;19.14;96893.69;5059812;28;20020;-77
2022/01/04 07:09:57;;;;;;;4.65;2.00;;;;;;;28.59;19.39;96886.78;5064269;28;20102;-77
2022/01/04 07:12:23;;;;;;;3.95;1.60;;;;;;;28.82;19.36;96898.38;5065723;28;20479;-77
2022/01/04 07:14:49;;;;;;;4.50;2.03;;;;;;;28.94;19.05;96892.34;5042116;28;20043;-77
2022/01/04 07:17:15;;;;;;;3.20;1.77;;;;;;;29.05;19.17;96901.00;5065273;28;20032;-79
2022/01/04 07:19:42;;;;;;;5.00;2.65;;;;;;;29.07;19.16;96889.97;5063423;28;20550;-78
2022/01/04 07:22:08;;;;;;;4.57;2.45;;;;;;;29.11;19.23;96892.56;5063090;28;20024;-78
2022/01/04 07:24:34;;;;;;;4.07;2.60;;;;;;;28.91;19.52;96884.88;5059987;28;20040;-78
2022/01/04 07:27:00;;;;;;;6.93;3.60;;;;;;;28.80;19.29;96878.31;5065721;28;20037;-78
2022/01/04 07:29:26;;;;;;;2.97;1.67;;;;;;;28.47;19.98;96884.28;5066938;28;20403;-78
2022/01/04 07:31:52;;;;;;;1.13;0.80;;;;;;;28.02;20.56;96872.34;5064742;28;20115;-78
2022/01/04 07:34:19;;;;;;;1.40;0.75;;;;;;;28.23;20.44;96858.28;5061495;28;20078;-77
2022/01/04 07:36:45;;;;;;;2.63;1.17;;;;;;;28.54;20.03;96859.19;5046279;28;20056;-78
2022/01/04 07:39:11;;;;;;;0.93;0.77;;;;;;;28.82;19.68;96848.31;5063470;28;20037;-77
2022/01/04 07:41:37;;;;;;;1.25;0.90;;;;;;;29.02;19.19;96856.75;5065288;28;20085;-78
2022/01/04 07:44:03;;;;;;;1.33;0.80;;;;;;;29.08;19.72;96842.69;5065681;28;20086;-78
2022/01/04 07:46:29;;;;;;;2.42;1.08;;;;;;;29.17;19.38;96834.03;5066022;28;20024;-78
2022/01/04 07:48:55;;;;;;;1.38;1.00;;;;;;;29.24;19.30;96833.63;5068921;28;20504;-77
2022/01/04 07:51:21;;;;;;;1.30;0.70;;;;;;;28.80;19.97;96833.88;5069009;28;20492;-78
2022/01/04 07:53:47;;;;;;;1.10;0.70;;;;;;;29.03;19.77;96824.41;5066572;28;20040;-78
2022/01/04 07:56:13;;;;;;;1.38;0.60;;;;;;;29.11;19.42;96828.31;5067990;28;20064;-78
2022/01/04 07:58:40;;;;;;;1.38;0.70;;;;;;;29.19;19.34;96831.53;5064236;28;20052;-78
2022/01/04 08:01:06;;;;;;;1.13;0.90;;;;;;;29.31;19.23;96825.44;5068791;28;20044;-77
2022/01/04 08:03:32;;;;;;;1.23;0.70;;;;;;;29.36;19.06;96801.34;5068749;28;20488;-78
2022/01/04 08:05:58;;;;;;;1.00;0.77;;;;;;;28.76;20.03;96805.06;5070665;28;20399;-77
2022/01/04 08:08:24;;;;;;;1.55;0.60;;;;;;;28.57;20.15;96806.59;5074554;28;20543;-78
2022/01/04 08:10:51;;;;;;;0.60;0.40;;;;;;;28.48;20.56;96815.22;5068871;28;20036;-78
2022/01/04 08:13:18;;;;;;;0.40;0.40;;;;;;;28.66;20.28;96807.25;5067656;28;20037;-78
2022/01/04 08:15:44;;;;;;;0.63;0.60;;;;;;;28.48;20.46;96801.88;5070685;28;20024;-78
2022/01/04 08:18:10;;;;;;;1.55;0.60;;;;;;;28.51;20.43;96800.13;5071713;28;20043;-79
2022/01/04 08:20:36;;;;;;;0.60;0.52;;;;;;;28.24;20.71;96792.84;5071976;28;20032;-78
2022/01/04 08:23:03;;;;;;;1.33;0.60;;;;;;;27.93;21.13;96784.97;5068582;28;20045;-78
2022/01/04 08:25:30;;;;;;;1.00;0.57;;;;;;;28.16;21.02;96786.06;5070890;28;20035;-78
2022/01/04 08:27:57;;;;;;;0.77;0.47;;;;;;;28.27;20.81;96780.56;5071740;28;20037;-78
2022/01/04 08:30:23;;;;;;;0.82;0.77;;;;;;;28.21;20.83;96774.09;5075339;28;20510;-78
2022/01/04 08:32:51;;;;;;;1.50;0.80;;;;;;;28.24;20.60;96769.50;5068960;28;20032;-78
2022/01/04 08:35:17;;;;;;;1.08;0.98;;;;;;;28.18;20.12;96760.16;5066207;28;20037;-78
2022/01/04 08:37:43;;;;;;;1.42;0.77;;;;;;;28.27;20.18;96760.03;5069615;28;20033;-78
2022/01/04 08:40:10;;;;;;;0.80;0.80;;;;;;;28.13;20.29;96746.75;5074857;28;20035;-78
2022/01/04 08:42:37;;;;;;;1.35;0.50;;;;;;;28.45;20.37;96745.66;5070767;28;20462;-78
2022/01/04 08:45:06;;;;;;;1.25;0.75;;;;;;;28.44;20.31;96741.25;5067238;28;20040;-77
2022/01/04 08:47:32;;;;;;;0.90;0.60;;;;;;;28.15;20.33;96736.53;5067484;28;20044;-78
2022/01/04 08:49:59;;;;;;;1.05;0.70;;;;;;;28.09;20.67;96746.97;5048293;28;20115;-78
2022/01/04 08:52:27;;;;;;;1.10;0.70;;;;;;;28.13;20.55;96739.06;5065282;28;20135;-77
2022/01/04 08:54:53;;;;;;;1.27;0.80;;;;;;;28.32;20.58;96729.06;5066729;28;20036;-78
2022/01/04 08:57:19;;;;;;;1.02;0.93;;;;;;;28.33;19.94;96724.97;5065825;28;20476;-78
2022/01/04 08:59:47;;;;;;;3.83;0.60;;;;;;;28.30;20.42;96716.69;5068151;28;20079;-78
2022/01/04 09:02:13;;;;;;;0.98;0.85;;;;;;;28.51;20.16;96710.53;5066294;28;20139;-78
2022/01/04 09:04:39;;;;;;;0.93;0.63;;;;;;;28.86;20.38;96707.59;5050857;28;20450;-78
2022/01/04 09:07:05;;;;;;;0.57;0.50;;;;;;;28.81;19.75;96702.66;5067103;28;20071;-78
2022/01/04 09:09:32;;;;;;;0.60;0.45;;;;;;;28.83;20.29;96690.84;5046680;28;20051;-78
2022/01/04 09:11:58;;;;;;;1.25;1.15;;;;;;;29.10;20.20;96685.44;5057003;28;20110;-78
2022/01/04 09:14:40;;;;;;;1.15;0.73;;;;;;;29.16;19.61;96686.25;5071074;28;20028;-78
2022/01/04 09:19:52;;;;;;;0.63;0.57;;;;;;;29.27;19.38;96672.22;5074493;28;20114;-78
2022/01/04 09:22:18;;;;;;;1.10;0.60;;;;;;;29.16;19.51;96666.47;5066657;28;20041;-78
2022/01/04 09:24:44;;;;;;;1.08;0.57;;;;;;;29.07;19.25;96660.22;5063984;28;20036;-77
2022/01/04 09:27:10;;;;;;;1.10;0.63;;;;;;;28.96;19.62;96646.81;5068433;28;20099;-78
2022/01/04 09:29:36;;;;;;;0.57;0.52;;;;;;;29.02;19.68;96639.13;5069450;28;20074;-78
2022/01/04 09:32:05;;;;;;;1.20;0.60;;;;;;;29.13;19.60;96639.19;5071710;28;20036;-78
2022/01/04 09:34:31;;;;;;;1.50;0.90;;;;;;;29.12;19.32;96634.06;5070798;28;20058;-78
2022/01/04 09:36:57;;;;;;;2.55;1.23;;;;;;;29.29;19.53;96624.44;5068721;28;20032;-78
2022/01/04 09:39:24;;;;;;;1.88;1.02;;;;;;;29.40;19.05;96624.53;5068731;28;20036;-78
2022/01/04 09:41:53;;;;;;;2.33;1.23;;;;;;;29.58;19.24;96614.84;5068025;28;20039;-78
2022/01/04 09:44:19;;;;;;;2.22;1.38;;;;;;;29.46;19.28;96598.31;5051431;28;20025;-78
2022/01/04 09:46:45;;;;;;;1.27;0.60;;;;;;;29.44;19.56;96601.66;5067423;28;20040;-78
2022/01/04 09:49:12;;;;;;;1.50;1.00;;;;;;;29.38;19.53;96593.13;5071097;28;20476;-77
2022/01/04 09:51:41;;;;;;;2.08;1.00;;;;;;;29.56;19.10;96597.59;5062772;28;20036;-78
2022/01/04 09:54:07;;;;;;;1.23;0.82;;;;;;;29.21;19.47;96591.50;5066047;28;20032;-77
2022/01/04 09:56:34;;;;;;;2.20;1.50;;;;;;;29.24;19.66;96585.59;5061241;28;20036;-77
2022/01/04 09:59:01;;;;;;;2.20;0.88;;;;;;;29.07;20.07;96581.09;5065893;28;20101;-78
2022/01/04 10:01:36;;;;;;;1.63;0.90;;;;;;;29.01;20.00;96572.56;5066007;28;20052;-79
2022/01/04 10:04:04;;;;;;;1.38;0.70;;;;;;;29.07;20.14;96567.75;5065444;28;20032;-78
2022/01/04 10:06:30;;;;;;;1.65;0.75;;;;;;;29.13;20.43;96556.44;5061021;28;20029;-78
2022/01/04 10:09:06;;;;;;;3.20;0.75;;;;;;;29.47;19.79;96552.56;5061894;28;20044;-78
2022/01/04 10:11:36;;;;;;;1.60;0.88;;;;;;;29.65;19.36;96551.34;5061941;28;20040;-79
2022/01/04 10:14:24;;;;;;;1.77;0.82;;;;;;;29.70;19.73;96544.94;5066352;28;20039;-78
2022/01/04 10:16:51;;;;;;;1.38;0.95;;;;;;;29.49;19.49;96535.09;5066987;28;22048;-78
2022/01/04 10:19:31;;;;;;;1.33;0.77;;;;;;;29.29;19.97;96533.97;5066475;28;20119;-77
2022/01/04 10:22:25;;;;;;;1.42;1.00;;;;;;;29.08;20.03;96543.84;5073571;28;20044;-78
2022/01/04 10:25:11;;;;;;;1.75;1.10;;;;;;;29.30;20.43;96540.41;5068999;28;20392;-78
2022/01/04 10:27:50;;;;;;;1.27;1.05;;;;;;;29.50;20.17;96543.03;5074317;28;20039;-78
2022/01/04 10:30:22;;;;;;;1.50;1.00;;;;;;;29.47;19.88;96534.81;5054523;28;20837;-78
2022/01/04 10:33:07;;;;;;;1.45;0.95;;;;;;;29.20;20.38;96530.56;5065898;28;20036;-78
2022/01/04 10:35:33;;;;;;;1.40;1.05;;;;;;;28.92;20.59;96523.94;5059992;28;20064;-79
2022/01/04 10:38:08;;;;;;;1.63;1.02;;;;;;;29.19;20.71;96526.22;5060057;28;20124;-78
2022/01/04 10:40:35;;;;;;;1.15;0.82;;;;;;;29.40;20.75;96517.06;5061867;28;20434;-79
2022/01/04 10:43:12;;;;;;;1.45;1.00;;;;;;;28.72;21.17;96522.81;5040708;28;20094;-78
2022/01/04 10:45:41;;;;;;;1.05;0.68;;;;;;;28.85;21.44;96521.59;5064589;28;20025;-78
2022/01/04 10:48:28;;;;;;;2.13;1.02;;;;;;;28.44;21.41;96507.69;5064048;28;20040;-78
2022/01/04 10:51:05;;;;;;;1.35;1.02;;;;;;;28.24;21.97;96501.34;5065315;28;20049;-78
2022/01/04 10:53:40;;;;;;;2.22;1.15;;;;;;;28.29;22.12;96497.78;5051775;28;20032;-78
2022/01/04 10:56:14;;;;;;;2.28;0.90;;;;;;;28.16;22.21;96491.78;5067627;28;20518;-78
2022/01/04 10:58:46;;;;;;;1.10;0.82;;;;;;;28.17;22.16;96493.34;5068295;28;20507;-78
2022/01/04 11:01:21;;;;;;;0.85;0.60;;;;;;;27.81;23.35;96491.94;5069561;28;20431;-79
2022/01/04 11:03:51;;;;;;;1.40;0.80;;;;;;;27.69;23.21;96484.63;5070126;28;20067;-79
2022/01/04 11:06:31;;;;;;;1.13;0.70;;;;;;;27.64;23.26;96482.50;5069727;28;22721;-78
2022/01/04 11:08:57;;;;;;;1.40;0.80;;;;;;;27.98;22.61;96475.94;5071379;28;20116;-78
2022/01/04 11:11:25;;;;;;;0.80;0.60;;;;;;;28.22;22.79;96472.84;5036716;28;20369;-78
2022/01/04 11:13:52;;;;;;;1.25;0.60;;;;;;;28.63;22.48;96477.81;5069481;28;20040;-79
2022/01/04 11:16:25;;;;;;;1.10;0.80;;;;;;;28.37;22.65;96470.66;5076819;28;20069;-78
2022/01/04 11:18:53;;;;;;;1.33;0.70;;;;;;;28.43;22.64;96469.41;5076058;28;20033;-78
2022/01/04 11:21:28;;;;;;;0.98;0.63;;;;;;;28.32;22.77;96477.03;5069859;28;20052;-78
2022/01/04 11:23:58;;;;;;;1.00;0.90;;;;;;;28.54;22.63;96468.75;5069883;28;20376;-79
2022/01/04 11:26:25;;;;;;;1.10;0.80;;;;;;;28.93;22.27;96466.94;5069550;28;20051;-78
2022/01/04 11:28:53;;;;;;;0.98;0.88;;;;;;;28.94;22.09;96464.91;5074104;28;20396;-78
2022/01/04 11:31:47;;;;;;;1.33;0.75;;;;;;;29.11;22.45;96468.56;5071312;28;20037;-79
2022/01/04 11:34:25;;;;;;;1.17;0.73;;;;;;;29.39;22.37;96442.00;5063361;28;20496;-79
2022/01/04 11:36:52;;;;;;;1.27;0.80;;;;;;;29.43;22.17;96451.00;5066550;28;20044;-79
2022/01/04 11:39:38;;;;;;;0.80;0.60;;;;;;;29.51;22.34;96444.84;5071718;28;20472;-78
2022/01/04 11:42:08;;;;;;;1.40;1.00;;;;;;;29.62;22.03;96430.72;5074852;28;20039;-79
2022/01/04 11:44:42;;;;;;;2.38;1.75;;;;;;;29.64;22.06;96426.09;5075320;28;20084;-78
2022/01/04 11:47:18;;;;;;;2.10;0.90;;;;;;;29.89;21.78;96418.72;5060578;28;20044;-79